Lanark, West Virginia
Current Conditions -  °F | °C
As of 11:51 AM on Thursday 27 Nov 2014 (Local Time) from KBKW Reporting Station
Overcast Overcast  
Wind Chill: -6°   Ceiling: 2000
Heat Index: -1°   Visibility: 10mi
Dew Point: -6°   Wind: 14mph
Humidity: 69%   Direction: 310°NW
Pressure: 30.08"   Gusts: NA
Location:  37.83°N, 81.15°W
Report Text: KBKW 271651Z AUTO 31012KT 10SM BKN020 OVC026 M01/M06 A3008 RMK AO2 SLP212 T10061056
Loading
Personal Weather Stations






























Interactive Weather Map New forecast layout! Learn more

10-Day Weather Forecast

Advertisements
Track Severe Weather on mobile